createdAt,value
2023-05-17T00:00:55.586Z,71.16
2023-05-17T00:03:23.884Z,71.55
2023-05-17T00:05:52.130Z,72.61
2023-05-17T00:08:20.357Z,72.03
2023-05-17T00:10:48.566Z,72.97
2023-05-17T00:13:18.427Z,71.46
2023-05-17T00:15:46.619Z,69.83
2023-05-17T00:18:14.973Z,70.11
2023-05-17T00:20:43.292Z,71.28
2023-05-17T00:23:11.480Z,70.39
2023-05-17T00:25:39.698Z,70.27
2023-05-17T00:28:07.873Z,69.93
2023-05-17T00:30:37.402Z,72.26
2023-05-17T00:33:05.709Z,72.23
2023-05-17T00:35:33.968Z,71.43
2023-05-17T00:38:02.244Z,72.71
2023-05-17T00:40:31.960Z,71.88
2023-05-17T00:43:00.157Z,71.89
2023-05-17T00:45:28.649Z,71.85
2023-05-17T00:47:58.743Z,72.05
2023-05-17T00:50:27.399Z,73.16
2023-05-17T00:52:55.728Z,72.86
2023-05-17T00:55:23.937Z,73.50
2023-05-17T00:57:52.992Z,72.94
2023-05-17T01:00:21.627Z,72.91
2023-05-17T01:03:10.035Z,71.88
2023-05-17T01:05:56.981Z,75.12
2023-05-17T01:08:43.775Z,73.82
2023-05-17T01:11:40.699Z,72.29
2023-05-17T01:14:39.911Z,73.33
2023-05-17T01:17:31.954Z,71.79
2023-05-17T01:20:24.759Z,70.46
2023-05-17T01:23:22.205Z,73.22
2023-05-17T01:26:13.026Z,72.74
2023-05-17T01:29:01.615Z,73.99
2023-05-17T01:31:50.075Z,72.69
2023-05-17T01:34:36.849Z,71.60
2023-05-17T01:37:23.663Z,70.49
2023-05-17T01:40:10.763Z,70.96
2023-05-17T01:43:01.521Z,70.86
2023-05-17T01:45:57.602Z,72.56
2023-05-17T01:48:50.317Z,72.11
2023-05-17T01:51:44.287Z,73.73
2023-05-17T01:54:36.413Z,73.66
2023-05-17T01:57:26.639Z,74.08
2023-05-17T02:00:15.039Z,72.99
2023-05-17T02:03:04.011Z,72.34
2023-05-17T02:05:50.832Z,72.47
2023-05-17T02:08:37.724Z,73.97
2023-05-17T02:11:24.299Z,74.62
2023-05-17T02:14:12.459Z,71.87
2023-05-17T02:16:59.717Z,74.29
2023-05-17T02:19:47.882Z,71.20
2023-05-17T02:22:34.555Z,71.28
2023-05-17T02:25:21.288Z,74.12
2023-05-17T02:28:08.093Z,73.61
2023-05-17T02:30:56.569Z,73.11
2023-05-17T02:33:43.691Z,71.33
2023-05-17T02:36:32.536Z,73.00
2023-05-17T02:39:19.181Z,73.72
2023-05-17T02:42:06.141Z,72.29
2023-05-17T02:44:53.099Z,71.76
2023-05-17T02:47:40.102Z,71.89
2023-05-17T02:50:26.731Z,70.13
2023-05-17T02:53:14.919Z,66.89
2023-05-17T02:56:01.704Z,69.98
2023-05-17T02:58:48.432Z,68.73
2023-05-17T03:01:36.230Z,69.57
2023-05-17T03:04:23.554Z,70.40
2023-05-17T03:07:10.466Z,67.70
2023-05-17T03:09:59.282Z,69.81
2023-05-17T03:12:49.984Z,68.43
2023-05-17T03:15:39.214Z,67.61
2023-05-17T03:18:26.013Z,69.40
2023-05-17T03:21:13.052Z,70.53
2023-05-17T03:23:59.772Z,68.86
2023-05-17T03:26:47.884Z,68.05
2023-05-17T03:29:34.660Z,69.54
2023-05-17T03:32:21.402Z,69.58
2023-05-17T03:35:09.040Z,70.11
2023-05-17T03:37:56.678Z,69.61
2023-05-17T03:40:44.179Z,68.53
2023-05-17T03:43:32.400Z,67.86
2023-05-17T03:46:20.214Z,69.06
2023-05-17T03:49:08.034Z,70.34
2023-05-17T03:51:55.340Z,68.76
2023-05-17T03:54:42.041Z,70.64
2023-05-17T03:57:28.861Z,71.20
2023-05-17T04:00:21.852Z,69.84
2023-05-17T04:03:09.274Z,68.92
2023-05-17T04:05:56.278Z,66.22
2023-05-17T04:08:43.135Z,68.84
2023-05-17T04:11:29.896Z,69.36
2023-05-17T04:14:16.563Z,68.33
2023-05-17T04:17:04.810Z,70.73
2023-05-17T04:19:51.737Z,71.60
2023-05-17T04:22:39.171Z,68.98
2023-05-17T04:25:25.989Z,68.11
2023-05-17T04:28:12.731Z,69.30
2023-05-17T04:30:59.395Z,68.39
2023-05-17T04:33:48.106Z,69.53
2023-05-17T04:36:35.429Z,68.50
2023-05-17T04:39:23.230Z,67.83
2023-05-17T04:42:10.205Z,69.82
2023-05-17T04:45:01.295Z,69.60
2023-05-17T04:47:52.851Z,69.20
2023-05-17T04:50:41.951Z,69.27
2023-05-17T04:53:30.732Z,68.51
2023-05-17T04:56:18.313Z,70.86
2023-05-17T04:59:05.495Z,70.33
2023-05-17T05:01:52.304Z,69.65
2023-05-17T05:04:39.327Z,71.15
2023-05-17T05:07:27.855Z,69.96
2023-05-17T05:10:15.086Z,67.90
2023-05-17T05:13:02.449Z,69.69
2023-05-17T05:15:49.377Z,71.81
2023-05-17T05:18:36.584Z,72.13
2023-05-17T05:21:23.984Z,69.50
2023-05-17T05:24:12.126Z,71.78
2023-05-17T05:26:58.939Z,68.88
2023-05-17T05:29:46.793Z,70.59
2023-05-17T05:32:33.950Z,71.62
2023-05-17T05:35:20.971Z,69.25
2023-05-17T05:38:08.781Z,70.30
2023-05-17T05:40:57.563Z,71.09
2023-05-17T05:43:44.340Z,71.22
2023-05-17T05:46:31.058Z,70.56
2023-05-17T05:49:18.852Z,70.44
2023-05-17T05:52:05.949Z,70.29
2023-05-17T05:54:52.964Z,70.58
2023-05-17T05:57:40.984Z,71.25
2023-05-17T06:00:28.805Z,71.58
2023-05-17T06:03:16.062Z,70.54
2023-05-17T06:06:02.662Z,71.01
2023-05-17T06:08:49.300Z,70.75
2023-05-17T06:11:36.085Z,71.55
2023-05-17T06:14:24.085Z,71.06
2023-05-17T06:17:10.794Z,68.29
2023-05-17T06:19:57.715Z,68.90
2023-05-17T06:22:44.637Z,71.52
2023-05-17T06:25:31.100Z,69.38
2023-05-17T06:28:18.623Z,66.83
2023-05-17T06:31:06.793Z,69.93
2023-05-17T06:33:53.287Z,69.30
2023-05-17T06:36:40.733Z,68.06
2023-05-17T06:39:27.975Z,67.56
2023-05-17T06:42:14.766Z,68.27
2023-05-17T06:45:01.954Z,67.29
2023-05-17T06:47:50.467Z,68.53
2023-05-17T06:50:37.174Z,69.70
2023-05-17T06:53:23.871Z,68.28
2023-05-17T06:56:11.030Z,66.70
2023-05-17T06:58:57.918Z,68.25
2023-05-17T07:01:44.620Z,69.29
2023-05-17T07:04:32.787Z,66.80
2023-05-17T07:07:19.542Z,65.82
2023-05-17T07:10:07.462Z,70.64
2023-05-17T07:12:54.565Z,67.91
2023-05-17T07:15:41.289Z,67.70
2023-05-17T07:18:28.130Z,65.75
2023-05-17T07:21:16.118Z,67.84
2023-05-17T07:24:03.218Z,64.24
2023-05-17T07:26:52.200Z,64.61
2023-05-17T07:29:39.369Z,66.17
2023-05-17T07:32:26.016Z,65.24
2023-05-17T07:35:12.930Z,65.30
2023-05-17T07:38:00.950Z,64.65
2023-05-17T07:40:47.694Z,63.27
2023-05-17T07:43:34.536Z,65.80
2023-05-17T07:46:21.556Z,63.23
2023-05-17T07:49:08.500Z,62.90
2023-05-17T07:51:55.701Z,65.04
2023-05-17T07:54:43.714Z,62.43
2023-05-17T07:57:30.408Z,61.83
2023-05-17T08:00:19.363Z,61.86
2023-05-17T08:03:06.300Z,58.49
2023-05-17T08:05:53.234Z,57.72
2023-05-17T08:08:39.996Z,60.14
2023-05-17T08:11:28.501Z,60.59
2023-05-17T08:14:15.669Z,58.17
2023-05-17T08:17:02.333Z,57.53
2023-05-17T08:19:50.348Z,57.70
2023-05-17T08:22:36.917Z,58.45
2023-05-17T08:25:23.671Z,57.67
2023-05-17T08:28:12.532Z,59.26
2023-05-17T08:30:59.382Z,58.03
2023-05-17T08:33:46.037Z,54.67
2023-05-17T08:36:32.866Z,59.36
2023-05-17T08:39:20.521Z,56.46
2023-05-17T08:42:08.994Z,57.94
2023-05-17T08:44:57.101Z,57.67
2023-05-17T08:47:44.382Z,59.30
2023-05-17T08:50:32.387Z,55.08
2023-05-17T08:53:19.191Z,56.24
2023-05-17T08:56:07.134Z,56.02
2023-05-17T08:58:58.125Z,54.70
2023-05-17T09:01:48.252Z,53.83
2023-05-17T09:04:34.827Z,56.40
2023-05-17T09:07:21.787Z,54.45
2023-05-17T09:10:09.814Z,56.12
2023-05-17T09:12:56.420Z,54.67
2023-05-17T09:15:44.048Z,55.75
2023-05-17T09:18:33.399Z,56.15
2023-05-17T09:21:20.031Z,56.04
2023-05-17T09:24:08.625Z,56.94
2023-05-17T09:26:55.588Z,56.70
2023-05-17T09:29:42.276Z,55.50
2023-05-17T09:32:28.905Z,61.01
2023-05-17T09:35:17.001Z,59.69
2023-05-17T09:38:08.579Z,63.44
2023-05-17T09:40:55.388Z,61.35
2023-05-17T09:43:41.913Z,64.60
2023-05-17T09:46:28.793Z,61.62
2023-05-17T09:49:16.471Z,60.98
2023-05-17T09:52:09.105Z,57.30
2023-05-17T09:54:57.513Z,57.61
2023-05-17T09:57:44.249Z,60.65
2023-05-17T10:00:32.389Z,62.11
2023-05-17T10:03:19.229Z,59.96
2023-05-17T10:06:09.889Z,60.14
2023-05-17T10:09:00.038Z,59.25
2023-05-17T10:11:47.888Z,56.98
2023-05-17T10:14:36.637Z,60.44
2023-05-17T10:17:23.812Z,57.62
2023-05-17T10:20:11.875Z,62.21
2023-05-17T10:22:59.395Z,56.10
2023-05-17T10:25:47.579Z,59.48
2023-05-17T10:28:34.432Z,58.71
2023-05-17T10:31:21.754Z,58.13
2023-05-17T10:34:09.936Z,57.30
2023-05-17T10:36:57.557Z,56.23
2023-05-17T10:39:46.856Z,61.06
2023-05-17T10:42:35.219Z,59.56
2023-05-17T10:45:22.905Z,57.52
2023-05-17T10:48:10.348Z,53.35
2023-05-17T10:51:01.872Z,58.15
2023-05-17T10:54:11.647Z,54.23
2023-05-17T10:57:06.422Z,52.49
2023-05-17T10:59:59.743Z,57.91
2023-05-17T11:02:48.702Z,56.35
2023-05-17T11:05:36.351Z,55.55
2023-05-17T11:08:23.242Z,52.85
2023-05-17T11:11:11.570Z,53.20
2023-05-17T11:13:59.117Z,47.70
2023-05-17T11:16:47.214Z,48.86
2023-05-17T11:19:34.029Z,49.96
2023-05-17T11:22:24.111Z,45.74
2023-05-17T11:25:13.252Z,40.43
2023-05-17T11:28:00.243Z,44.59
2023-05-17T11:30:51.655Z,45.20
2023-05-17T11:33:43.637Z,47.12
2023-05-17T11:36:30.714Z,43.85
2023-05-17T11:39:18.462Z,44.03
2023-05-17T11:42:05.684Z,44.79
2023-05-17T11:44:52.734Z,44.93
2023-05-17T11:47:42.996Z,43.68
2023-05-17T11:50:31.315Z,49.82
2023-05-17T11:53:18.233Z,47.48
2023-05-17T11:56:05.397Z,50.03
2023-05-17T11:58:52.862Z,47.13
2023-05-17T12:01:46.828Z,49.60
2023-05-17T12:04:37.359Z,48.92
2023-05-17T12:07:26.036Z,45.84
2023-05-17T12:10:14.468Z,46.50
2023-05-17T12:13:02.039Z,46.95
2023-05-17T12:15:52.975Z,47.79
2023-05-17T12:18:40.513Z,47.76
2023-05-17T12:21:27.801Z,46.54
2023-05-17T12:24:16.304Z,48.74
2023-05-17T12:27:03.031Z,47.70
2023-05-17T12:29:49.708Z,52.83
2023-05-17T12:32:36.343Z,44.07
2023-05-17T12:35:23.102Z,44.29
2023-05-17T12:38:11.351Z,47.46
2023-05-17T12:41:00.537Z,51.34
2023-05-17T12:43:47.555Z,46.21
2023-05-17T12:46:34.663Z,47.78
2023-05-17T12:49:22.734Z,48.92
2023-05-17T12:52:11.568Z,51.62
2023-05-17T12:55:00.065Z,46.12
2023-05-17T12:57:51.739Z,49.47
2023-05-17T13:00:38.453Z,45.65
2023-05-17T13:03:25.349Z,48.05
2023-05-17T13:06:12.015Z,48.42
2023-05-17T13:09:02.085Z,47.42
2023-05-17T13:11:52.379Z,53.82
2023-05-17T13:14:45.768Z,50.27
2023-05-17T13:17:36.721Z,50.52
2023-05-17T13:20:23.500Z,45.80
2023-05-17T13:23:10.731Z,44.13
2023-05-17T13:25:57.511Z,45.93
2023-05-17T13:28:44.464Z,51.30
2023-05-17T13:31:13.957Z,48.24
2023-05-17T13:33:42.378Z,49.69
2023-05-17T13:36:10.638Z,49.92
2023-05-17T13:38:38.697Z,49.68
2023-05-17T13:41:09.401Z,47.04
2023-05-17T13:43:37.488Z,49.50
2023-05-17T13:46:05.562Z,49.58
2023-05-17T13:48:35.157Z,46.68
2023-05-17T13:51:03.316Z,47.16
2023-05-17T13:53:31.355Z,50.20
2023-05-17T13:55:59.491Z,49.14
2023-05-17T13:58:27.610Z,48.42
2023-05-17T14:00:55.754Z,47.96
2023-05-17T14:03:23.917Z,46.64
2023-05-17T14:05:54.332Z,44.43
2023-05-17T14:08:22.437Z,42.47
2023-05-17T14:10:50.477Z,47.58
2023-05-17T14:13:18.795Z,45.65
2023-05-17T14:15:47.012Z,43.33
2023-05-17T14:18:15.463Z,44.11
2023-05-17T14:20:43.778Z,42.88
2023-05-17T14:23:13.469Z,45.80
2023-05-17T14:25:43.745Z,43.68
2023-05-17T14:28:13.632Z,45.06
2023-05-17T14:30:42.239Z,46.66
2023-05-17T14:33:10.600Z,45.09
2023-05-17T14:35:39.099Z,47.63
2023-05-17T14:38:07.320Z,44.94
2023-05-17T14:40:36.868Z,43.87
2023-05-17T14:43:05.116Z,44.92
2023-05-17T14:45:33.299Z,48.59
2023-05-17T14:48:01.690Z,47.41
2023-05-17T14:50:32.853Z,48.52
2023-05-17T14:53:01.171Z,46.09
2023-05-17T14:55:30.106Z,46.10
2023-05-17T14:58:01.800Z,43.73
2023-05-17T15:00:30.172Z,44.19
2023-05-17T15:02:58.513Z,45.60
2023-05-17T15:05:26.814Z,42.96
2023-05-17T15:07:55.051Z,44.85
2023-05-17T15:10:23.919Z,46.31
2023-05-17T15:12:52.381Z,43.19
2023-05-17T15:15:22.251Z,40.72
2023-05-17T15:17:50.565Z,46.00
2023-05-17T15:20:20.150Z,44.97
2023-05-17T15:22:48.640Z,41.19
2023-05-17T15:25:17.289Z,42.64
2023-05-17T15:27:45.603Z,44.04
2023-05-17T15:30:15.007Z,44.14
2023-05-17T15:32:44.630Z,42.10
2023-05-17T15:35:12.927Z,39.74
2023-05-17T15:37:41.320Z,42.20
2023-05-17T15:40:11.002Z,44.69
2023-05-17T15:42:39.197Z,42.50
2023-05-17T15:45:08.509Z,43.08
2023-05-17T15:47:43.105Z,41.58
2023-05-17T15:50:13.188Z,43.56
2023-05-17T15:52:41.701Z,44.59
2023-05-17T15:55:10.949Z,45.12
2023-05-17T15:57:39.372Z,44.49
2023-05-17T16:00:09.115Z,43.19
2023-05-17T16:02:37.381Z,44.68
2023-05-17T16:05:06.499Z,45.93
2023-05-17T16:07:36.071Z,45.33
2023-05-17T16:10:04.377Z,45.51
2023-05-17T16:12:32.645Z,44.80
2023-05-17T16:15:00.831Z,45.75
2023-05-17T16:17:29.086Z,44.48
2023-05-17T16:19:57.358Z,44.51
2023-05-17T16:22:25.683Z,45.05
2023-05-17T16:24:55.475Z,42.75
2023-05-17T16:27:23.740Z,44.35
2023-05-17T16:29:51.965Z,46.13
2023-05-17T16:32:20.315Z,44.19
2023-05-17T16:34:48.593Z,45.36
2023-05-17T16:37:16.877Z,46.17
2023-05-17T16:39:45.070Z,48.73
2023-05-17T16:42:15.203Z,48.45
2023-05-17T16:44:43.424Z,49.77
2023-05-17T16:47:11.911Z,49.45
2023-05-17T16:49:41.191Z,49.79
2023-05-17T16:52:09.787Z,49.96
2023-05-17T16:54:38.688Z,49.07
2023-05-17T16:57:08.536Z,47.27
2023-05-17T16:59:38.506Z,49.75
2023-05-17T17:02:07.596Z,49.75
2023-05-17T17:04:36.996Z,51.68
2023-05-17T17:07:05.699Z,48.89
2023-05-17T17:09:33.928Z,49.57
2023-05-17T17:12:09.585Z,48.34
2023-05-17T17:14:46.944Z,48.72
2023-05-17T17:17:15.328Z,48.66
2023-05-17T17:19:43.612Z,49.21
2023-05-17T17:22:12.099Z,50.75
2023-05-17T17:24:40.328Z,51.47
2023-05-17T17:27:08.626Z,50.87
2023-05-17T17:29:37.475Z,51.80
2023-05-17T17:32:08.534Z,51.72
2023-05-17T17:34:36.768Z,52.26
2023-05-17T17:37:05.026Z,51.83
2023-05-17T17:39:33.271Z,52.67
2023-05-17T17:42:01.583Z,53.51
2023-05-17T17:44:29.774Z,53.53
2023-05-17T17:46:58.065Z,52.74
2023-05-17T17:49:27.706Z,53.43
2023-05-17T17:51:55.895Z,54.14
2023-05-17T17:54:24.103Z,53.60
2023-05-17T17:56:52.285Z,53.93
2023-05-17T17:59:20.441Z,54.10
2023-05-17T18:01:48.772Z,54.34
2023-05-17T18:04:17.135Z,54.64
2023-05-17T18:06:46.802Z,55.38
2023-05-17T18:09:15.126Z,56.41
2023-05-17T18:11:43.418Z,56.01
2023-05-17T18:14:12.184Z,54.87
2023-05-17T18:16:40.665Z,54.66
2023-05-17T18:19:08.995Z,54.78
2023-05-17T18:21:37.312Z,54.87
2023-05-17T18:24:07.623Z,54.70
2023-05-17T18:26:36.237Z,54.62
2023-05-17T18:29:05.909Z,54.67
2023-05-17T18:31:34.188Z,55.79
2023-05-17T18:34:02.457Z,55.13
2023-05-17T18:36:30.985Z,55.87
2023-05-17T18:39:00.890Z,56.61
2023-05-17T18:41:30.461Z,56.91
2023-05-17T18:44:01.821Z,57.20
2023-05-17T18:46:30.581Z,56.91
2023-05-17T18:48:58.813Z,56.90
2023-05-17T18:51:27.953Z,56.30
2023-05-17T18:53:56.182Z,57.06
2023-05-17T18:56:25.211Z,57.47
2023-05-17T18:58:55.474Z,58.02
2023-05-17T19:01:23.892Z,58.36
2023-05-17T19:03:55.190Z,58.40
2023-05-17T19:06:24.077Z,58.82
2023-05-17T19:08:52.513Z,58.34
2023-05-17T19:11:21.054Z,58.66
2023-05-17T19:13:49.848Z,58.29
2023-05-17T19:16:19.438Z,57.83
2023-05-17T19:18:47.698Z,58.62
2023-05-17T19:21:15.989Z,59.54
2023-05-17T19:23:44.707Z,58.92
2023-05-17T19:26:12.923Z,59.26
2023-05-17T19:28:41.401Z,59.58
2023-05-17T19:31:09.646Z,60.10
2023-05-17T19:33:39.191Z,60.67
2023-05-17T19:36:07.561Z,60.31
2023-05-17T19:38:35.878Z,60.97
2023-05-17T19:41:04.095Z,61.60
2023-05-17T19:43:35.818Z,62.16
2023-05-17T19:46:04.424Z,62.25
2023-05-17T19:48:32.681Z,60.69
2023-05-17T19:51:02.192Z,61.85
2023-05-17T19:53:40.263Z,62.52
2023-05-17T19:56:12.325Z,62.24
2023-05-17T19:58:40.533Z,62.36
2023-05-17T20:01:08.725Z,61.84
2023-05-17T20:03:37.111Z,61.50
2023-05-17T20:06:06.907Z,62.85
2023-05-17T20:08:35.983Z,63.60
2023-05-17T20:11:04.209Z,64.01
2023-05-17T20:13:34.284Z,64.17
2023-05-17T20:16:02.632Z,64.38
2023-05-17T20:18:31.722Z,64.72
2023-05-17T20:20:59.900Z,64.89
2023-05-17T20:23:29.523Z,65.33
2023-05-17T20:25:57.897Z,66.06
2023-05-17T20:28:26.229Z,66.51
2023-05-17T20:30:55.703Z,67.35
2023-05-17T20:33:26.650Z,67.28
2023-05-17T20:35:55.218Z,66.80
2023-05-17T20:38:23.397Z,67.75
2023-05-17T20:40:53.004Z,68.53
2023-05-17T20:43:21.157Z,67.83
2023-05-17T20:45:49.912Z,68.14
2023-05-17T20:48:18.503Z,67.88
2023-05-17T20:50:47.324Z,68.39
2023-05-17T20:53:15.472Z,68.57
2023-05-17T20:55:44.475Z,68.07
2023-05-17T20:58:14.025Z,68.40
2023-05-17T21:00:42.806Z,68.42
2023-05-17T21:03:11.406Z,69.02
2023-05-17T21:05:39.708Z,69.40
2023-05-17T21:08:08.291Z,69.99
2023-05-17T21:10:40.569Z,69.25
2023-05-17T21:13:09.591Z,69.56
2023-05-17T21:15:39.273Z,69.41
2023-05-17T21:18:07.699Z,69.48
2023-05-17T21:20:36.145Z,70.18
2023-05-17T21:23:04.457Z,70.30
2023-05-17T21:25:32.902Z,70.73
2023-05-17T21:28:01.180Z,70.98
2023-05-17T21:30:29.696Z,70.43
2023-05-17T21:32:59.561Z,71.30
2023-05-17T21:35:27.867Z,70.56
2023-05-17T21:37:56.145Z,71.23
2023-05-17T21:40:24.362Z,71.60
2023-05-17T21:42:52.522Z,71.95
2023-05-17T21:45:21.027Z,72.20
2023-05-17T21:47:49.241Z,71.71
2023-05-17T21:50:18.953Z,71.76
2023-05-17T21:52:47.160Z,72.41
2023-05-17T21:55:15.373Z,73.45
2023-05-17T21:57:43.582Z,73.84
2023-05-17T22:00:15.266Z,73.76
2023-05-17T22:02:44.618Z,74.27
2023-05-17T22:05:13.294Z,74.73
2023-05-17T22:07:43.987Z,74.84
2023-05-17T22:10:12.678Z,74.73
2023-05-17T22:12:40.949Z,75.63
2023-05-17T22:15:10.972Z,75.95
2023-05-17T22:17:48.543Z,76.32
2023-05-17T22:20:23.704Z,76.35
2023-05-17T22:22:53.548Z,76.68
2023-05-17T22:25:21.929Z,75.94
2023-05-17T22:27:50.124Z,75.77
2023-05-17T22:30:18.451Z,76.66
2023-05-17T22:32:46.794Z,76.31
2023-05-17T22:35:15.112Z,77.35
2023-05-17T22:37:43.349Z,77.53
2023-05-17T22:40:13.799Z,76.43
2023-05-17T22:42:43.207Z,75.87
2023-05-17T22:45:14.518Z,75.12
2023-05-17T22:47:43.619Z,75.92
2023-05-17T22:50:14.471Z,75.04
2023-05-17T22:52:42.777Z,75.84
2023-05-17T22:55:12.511Z,75.44
2023-05-17T22:57:40.996Z,75.48
2023-05-17T23:00:11.422Z,75.40
2023-05-17T23:02:39.895Z,76.19
2023-05-17T23:05:08.728Z,75.30
2023-05-17T23:07:38.453Z,75.74
2023-05-17T23:10:08.334Z,75.27
2023-05-17T23:12:38.674Z,76.15
2023-05-17T23:15:08.294Z,76.21
2023-05-17T23:17:39.017Z,75.91
2023-05-17T23:20:09.968Z,76.68
2023-05-17T23:22:38.987Z,77.04
2023-05-17T23:25:07.920Z,77.27
2023-05-17T23:27:37.565Z,76.49
2023-05-17T23:30:07.390Z,77.25
2023-05-17T23:32:35.585Z,77.02
2023-05-17T23:35:04.834Z,76.26
2023-05-17T23:37:35.040Z,76.51
2023-05-17T23:40:04.723Z,76.26
2023-05-17T23:42:33.006Z,77.68
2023-05-17T23:45:02.913Z,77.35
2023-05-17T23:47:33.624Z,76.91
2023-05-17T23:50:02.988Z,76.84
2023-05-17T23:52:32.574Z,77.10
2023-05-17T23:55:01.602Z,77.06
2023-05-17T23:57:30.452Z,77.17
2023-05-17T23:59:58.675Z,77.08
